Time;durP1;ratioP1;P1;durP2;ratioP2;P2;SDS_P1;SDS_P2;PMS_P1;PMS_P2;Temp;Humidity;BMP_temperature;BMP_pressure;BME280_temperature;BME280_humidity;BME280_pressure;Samples;Min_cycle;Max_cycle;Signal;HPM_P1;HPM_P2
2021/04/23 00:00:18;;;;;;;;;;;;;;;-142.75;62.64;79742.75;5051448;28;19921;-74
2021/04/23 00:02:45;;;;;;;;;;;;;;;-142.75;62.31;79740.78;5057027;28;19916;-73
2021/04/23 00:05:10;;;;;;;;;;;;;;;-142.75;62.54;79740.78;5061731;28;19966;-75
2021/04/23 00:07:36;;;;;;;;;;;;;;;-142.75;62.56;79742.75;5050788;28;19912;-75
2021/04/23 00:10:02;;;;;;;;;;;;;;;-142.75;62.45;79752.63;5051244;28;19919;-74
2021/04/23 00:12:27;;;;;;;;;;;;;;;-142.75;63.02;79756.56;5052870;28;19920;-74
2021/04/23 00:14:52;;;;;;;;;;;;;;;-142.75;64.10;79764.44;5052948;28;19916;-74
2021/04/23 00:17:18;;;;;;;;;;;;;;;-142.75;64.50;79766.41;5053118;28;19919;-74
2021/04/23 00:19:46;;;;;;;;;;;;;;;-142.75;64.30;79772.31;5052866;28;19916;-73
2021/04/23 00:22:12;;;;;;;;;;;;;;;-142.75;64.07;79768.38;5069772;28;19957;-73
2021/04/23 00:24:38;;;;;;;;;;;;;;;-142.75;64.01;79770.34;5070363;28;20297;-74
2021/04/23 00:27:03;;;;;;;;;;;;;;;-142.75;63.94;79776.25;5069412;28;19974;-75
2021/04/23 00:29:29;;;;;;;;;;;;;;;-142.75;63.93;79776.25;5061424;28;19913;-74
2021/04/23 00:34:39;;;;;;;;;;;;;;;-142.75;64.38;79793.97;5048586;28;20328;-73
2021/04/23 00:37:04;;;;;;;;;;;;;;;-142.75;64.50;79799.91;5049939;28;19912;-74
2021/04/23 00:39:29;;;;;;;;;;;;;;;-142.75;64.44;79803.84;5050004;28;19913;-74
2021/04/23 00:41:55;;;;;;;;;;;;;;;-142.75;64.79;79809.75;5049693;28;20278;-72
2021/04/23 00:44:20;;;;;;;;;;;;;;;-142.75;64.60;79797.94;5050374;28;19944;-72
2021/04/23 00:46:45;;;;;;;;;;;;;;;-142.75;64.27;79799.91;5050038;28;19974;-74
2021/04/23 00:49:11;;;;;;;;;;;;;;;-142.75;63.88;79799.91;5052200;28;19913;-73
2021/04/23 00:51:49;;;;;;;;;;;;;;;-142.75;64.23;79803.84;5069728;28;19959;-74
2021/04/23 00:54:14;;;;;;;;;;;;;;;-142.75;64.35;79809.75;5070329;28;19927;-74
2021/04/23 00:56:40;;;;;;;;;;;;;;;-142.75;64.99;79817.63;5068877;28;19912;-71
2021/04/23 00:59:07;;;;;;;;;;;;;;;-142.75;65.40;79819.59;5067830;28;19912;-72
2021/04/23 01:01:34;;;;;;;;;;;;;;;-142.75;65.51;79825.50;5069940;28;19920;-72
2021/04/23 01:03:59;;;;;;;;;;;;;;;-142.75;65.60;79823.53;5061885;28;20006;-74
2021/04/23 01:06:30;;;;;;;;;;;;;;;-142.75;65.25;79819.59;5049782;28;20015;-73
2021/04/23 01:08:57;;;;;;;;;;;;;;;-142.75;64.99;79823.53;5048809;28;19932;-74
2021/04/23 01:11:23;;;;;;;;;;;;;;;-142.75;64.94;79815.66;5049554;28;19924;-74
2021/04/23 01:13:49;;;;;;;;;;;;;;;-142.75;65.19;79817.63;5051318;28;19951;-74
2021/04/23 01:16:17;;;;;;;;;;;;;;;-142.75;65.14;79821.56;5065050;28;19951;-74
2021/04/23 01:18:42;;;;;;;;;;;;;;;-142.75;65.27;79819.59;5049428;28;19951;-73
2021/04/23 01:21:19;;;;;;;;;;;;;;;-142.75;65.23;79817.63;5047361;28;19967;-74
2021/04/23 01:23:45;;;;;;;;;;;;;;;-142.75;64.95;79811.72;5059845;28;19935;-74
2021/04/23 01:26:11;;;;;;;;;;;;;;;-142.75;64.85;79811.72;5070045;28;20301;-74
2021/04/23 01:28:37;;;;;;;;;;;;;;;-142.75;65.15;79811.72;5069852;28;20516;-73
2021/04/23 01:31:04;;;;;;;;;;;;;;;-142.75;65.22;79817.63;5069092;28;19916;-74
2021/04/23 01:33:30;;;;;;;;;;;;;;;-142.75;65.35;79811.72;5055592;28;19912;-74
2021/04/23 01:35:55;;;;;;;;;;;;;;;-142.75;65.21;79807.78;5049887;28;20302;-72
2021/04/23 01:38:20;;;;;;;;;;;;;;;-142.75;65.01;79813.69;5049606;28;19967;-72
2021/04/23 01:40:46;;;;;;;;;;;;;;;-142.75;64.63;79807.78;5063386;28;19912;-73
2021/04/23 01:43:12;;;;;;;;;;;;;;;-142.75;64.50;79811.72;5069057;28;20366;-75
2021/04/23 01:45:38;;;;;;;;;;;;;;;-142.75;65.03;79815.66;5051275;28;19912;-75
2021/04/23 01:48:03;;;;;;;;;;;;;;;-142.75;64.71;79817.63;5069791;28;19931;-74
2021/04/23 01:50:28;;;;;;;;;;;;;;;-142.75;64.33;79821.56;5068958;28;19958;-73
2021/04/23 01:52:53;;;;;;;;;;;;;;;-142.75;64.49;79819.59;5068609;28;19912;-72
2021/04/23 01:55:20;;;;;;;;;;;;;;;-142.75;64.23;79827.47;5049571;28;19919;-74
2021/04/23 01:57:46;;;;;;;;;;;;;;;-142.75;64.14;79823.53;5069085;28;19924;-73
2021/04/23 02:00:17;;;;;;;;;;;;;;;-142.75;63.91;79823.53;5069216;28;20453;-73
2021/04/23 02:02:42;;;;;;;;;;;;;;;-142.75;63.85;79823.53;5069902;28;19966;-74
2021/04/23 02:05:08;;;;;;;;;;;;;;;-142.75;63.67;79827.47;5051066;28;20331;-73
2021/04/23 02:07:33;;;;;;;;;;;;;;;-142.75;63.85;79831.41;5068431;28;19920;-74
2021/04/23 02:10:00;;;;;;;;;;;;;;;-142.75;63.76;79835.34;5050622;28;20035;-72
2021/04/23 02:12:25;;;;;;;;;;;;;;;-142.75;63.92;79847.19;5067198;28;20328;-73
2021/04/23 02:14:50;;;;;;;;;;;;;;;-142.75;64.04;79857.03;5068202;28;19921;-73
2021/04/23 02:17:16;;;;;;;;;;;;;;;-142.75;64.51;79862.94;5068968;28;19912;-73
2021/04/23 02:19:41;;;;;;;;;;;;;;;-142.75;64.41;79874.75;5049248;28;19912;-75
2021/04/23 02:22:06;;;;;;;;;;;;;;;-142.75;64.26;79878.69;5048706;28;19919;-73
2021/04/23 02:24:32;;;;;;;;;;;;;;;-142.75;64.41;79880.66;5049155;28;20357;-74
2021/04/23 02:26:57;;;;;;;;;;;;;;;-142.75;64.59;79888.53;5051322;28;19913;-74
2021/04/23 02:29:22;;;;;;;;;;;;;;;-142.75;65.02;79888.53;5053100;28;19913;-74
2021/04/23 02:31:50;;;;;;;;;;;;;;;-142.75;65.29;79888.53;5052067;28;20263;-74
2021/04/23 02:34:16;;;;;;;;;;;;;;;-142.75;66.49;79886.56;5054234;28;19920;-74
2021/04/23 02:36:41;;;;;;;;;;;;;;;-142.75;66.00;79880.66;5072876;28;19924;-74
2021/04/23 02:39:08;;;;;;;;;;;;;;;-142.75;65.50;79890.50;5072572;28;19917;-76
2021/04/23 02:41:33;;;;;;;;;;;;;;;-142.75;65.38;79894.47;5071513;28;19978;-72
2021/04/23 02:43:59;;;;;;;;;;;;;;;-142.75;65.28;79900.38;5071185;28;19912;-74
2021/04/23 02:46:25;;;;;;;;;;;;;;;-142.75;65.42;79912.19;5071853;28;19912;-73
2021/04/23 02:48:50;;;;;;;;;;;;;;;-142.75;65.44;79922.03;5052047;28;19923;-74
2021/04/23 02:51:18;;;;;;;;;;;;;;;-142.75;65.21;79925.97;5051659;28;19921;-72
2021/04/23 02:53:43;;;;;;;;;;;;;;;-142.75;65.71;79925.97;5051869;28;19931;-76
2021/04/23 02:56:09;;;;;;;;;;;;;;;-142.75;65.69;79931.88;5052312;28;19916;-75
2021/04/23 02:58:35;;;;;;;;;;;;;;;-142.75;65.86;79939.78;5052322;28;19940;-76
2021/04/23 03:01:03;;;;;;;;;;;;;;;-142.75;66.37;79933.84;5051024;28;19997;-76
2021/04/23 03:03:28;;;;;;;;;;;;;;;-142.75;66.70;79935.84;5067693;28;20347;-76
2021/04/23 03:05:54;;;;;;;;;;;;;;;-142.75;66.41;79937.81;5071709;28;20001;-74
2021/04/23 03:08:20;;;;;;;;;;;;;;;-142.75;66.19;79931.88;5070512;28;19912;-74
2021/04/23 03:10:47;;;;;;;;;;;;;;;-142.75;66.57;79910.22;5052222;28;19920;-76
2021/04/23 03:13:20;;;;;;;;;;;;;;;-142.75;67.10;79898.41;5067786;28;19913;-76
2021/04/23 03:15:46;;;;;;;;;;;;;;;-142.75;66.16;79918.09;5050941;28;20387;-75
2021/04/23 03:18:13;;;;;;;;;;;;;;;-142.75;65.69;79925.97;5051915;28;19920;-75
2021/04/23 03:20:38;;;;;;;;;;;;;;;-142.75;65.99;79929.91;5052529;28;20361;-73
2021/04/23 03:23:03;;;;;;;;;;;;;;;-142.75;65.59;79941.75;5052057;28;19917;-75
2021/04/23 03:25:30;;;;;;;;;;;;;;;-142.75;65.58;79949.63;5051921;28;20389;-76
2021/04/23 03:27:56;;;;;;;;;;;;;;;-142.75;65.37;79957.50;5067280;28;19951;-74
2021/04/23 03:30:23;;;;;;;;;;;;;;;-142.75;65.65;79957.50;5051994;28;19966;-74
2021/04/23 03:32:48;;;;;;;;;;;;;;;-142.75;65.48;79965.38;5052280;28;19916;-73
2021/04/23 03:35:14;;;;;;;;;;;;;;;-142.75;65.93;79969.31;5106072;22;19919;-71
2021/04/23 03:37:40;;;;;;;;;;;;;;;-142.75;66.00;79971.28;5110102;27;19955;-71
2021/04/23 03:40:06;;;;;;;;;;;;;;;-142.75;66.16;79969.31;5093840;28;19912;-73
2021/04/23 03:42:31;;;;;;;;;;;;;;;-142.75;65.95;79969.31;5093914;28;20542;-71
2021/04/23 03:44:56;;;;;;;;;;;;;;;-142.75;66.08;79969.31;5112608;28;20292;-72
2021/04/23 03:47:22;;;;;;;;;;;;;;;-142.75;65.89;79969.31;5094234;28;20349;-72
2021/04/23 03:49:47;;;;;;;;;;;;;;;-142.75;66.42;79963.41;5112406;28;19915;-71
2021/04/23 03:52:12;;;;;;;;;;;;;;;-142.75;67.04;79961.44;5112127;28;19919;-71
2021/04/23 03:54:38;;;;;;;;;;;;;;;-142.75;66.92;79961.44;5094300;28;19912;-71
2021/04/23 03:57:03;;;;;;;;;;;;;;;-142.75;66.65;79961.44;5112128;28;19919;-72
2021/04/23 03:59:29;;;;;;;;;;;;;;;-142.75;66.36;79957.50;5094286;28;19937;-71
2021/04/23 04:01:54;;;;;;;;;;;;;;;-142.75;66.11;79959.47;5112502;28;19923;-72
2021/04/23 04:04:19;;;;;;;;;;;;;;;-142.75;65.87;79969.31;5111930;28;19946;-71
2021/04/23 04:06:46;;;;;;;;;;;;;;;-142.75;65.47;79969.31;5111627;28;19918;-72
2021/04/23 04:09:11;;;;;;;;;;;;;;;-142.75;65.99;79969.31;5111969;28;19911;-71
2021/04/23 04:11:36;;;;;;;;;;;;;;;-142.75;66.05;79969.31;5111428;28;20430;-71
2021/04/23 04:14:02;;;;;;;;;;;;;;;-142.75;66.02;79979.16;5093672;28;19922;-72
2021/04/23 04:16:27;;;;;;;;;;;;;;;-142.75;65.84;79977.19;5112082;28;19907;-71
2021/04/23 04:18:52;;;;;;;;;;;;;;;-142.75;65.83;79983.13;5111520;28;20436;-71
2021/04/23 04:21:18;;;;;;;;;;;;;;;-142.75;66.05;79985.09;5111751;28;20014;-71
2021/04/23 04:23:43;;;;;;;;;;;;;;;-142.75;65.87;79989.03;5111722;28;19945;-72
2021/04/23 04:26:08;;;;;;;;;;;;;;;-142.75;66.10;79991.00;5111783;28;19957;-72
2021/04/23 04:28:33;;;;;;;;;;;;;;;-142.75;66.06;79989.03;5111786;28;19912;-72
2021/04/23 04:30:59;;;;;;;;;;;;;;;-142.75;65.81;79994.94;5111439;28;20362;-72
2021/04/23 04:33:24;;;;;;;;;;;;;;;-142.75;65.85;80000.84;5112110;28;19933;-72
2021/04/23 04:35:50;;;;;;;;;;;;;;;-142.75;65.81;79996.91;5093157;28;19915;-72
2021/04/23 04:38:15;;;;;;;;;;;;;;;-142.75;65.69;80000.84;5111353;28;19947;-72
2021/04/23 04:40:42;;;;;;;;;;;;;;;-142.75;65.71;80002.81;5111251;28;19912;-71
2021/04/23 04:43:08;;;;;;;;;;;;;;;-142.75;65.80;80000.84;5111502;28;19967;-71
2021/04/23 04:45:33;;;;;;;;;;;;;;;-142.75;66.08;80004.78;5093039;28;19915;-72
2021/04/23 04:47:59;;;;;;;;;;;;;;;-142.75;66.42;80008.72;5111257;28;20300;-72
2021/04/23 04:50:27;;;;;;;;;;;;;;;-142.75;66.46;80004.78;5111246;28;19950;-72
2021/04/23 04:52:52;;;;;;;;;;;;;;;-142.75;66.92;80000.84;5092904;28;19975;-70
2021/04/23 04:55:18;;;;;;;;;;;;;;;-142.75;67.27;80000.84;5093547;28;19911;-71
2021/04/23 04:57:43;;;;;;;;;;;;;;;-142.75;67.53;79996.91;5111835;28;20010;-72
2021/04/23 05:00:09;;;;;;;;;;;;;;;-142.75;66.92;79998.88;5111993;28;19911;-72
2021/04/23 05:02:34;;;;;;;;;;;;;;;-142.75;66.66;80004.78;5112046;28;19918;-71
2021/04/23 05:05:00;;;;;;;;;;;;;;;-142.75;66.33;80002.81;5111766;28;19911;-71
2021/04/23 05:07:25;;;;;;;;;;;;;;;-142.75;66.37;80002.81;5111684;28;19916;-73
2021/04/23 05:09:50;;;;;;;;;;;;;;;-142.75;66.18;79992.97;5093640;28;20006;-72
2021/04/23 05:12:15;;;;;;;;;;;;;;;-142.75;66.20;79983.13;5092601;28;20400;-73
2021/04/23 05:14:41;;;;;;;;;;;;;;;-142.75;67.38;79922.03;5111571;28;19919;-72
2021/04/23 05:17:06;;;;;;;;;;;;;;;-142.75;67.81;79847.19;5093338;28;19911;-73
2021/04/23 05:19:31;;;;;;;;;;;;;;;-142.75;67.77;79811.72;5092426;28;20432;-71
2021/04/23 05:21:56;;;;;;;;;;;;;;;-142.75;65.62;79807.78;5109970;28;19918;-72
2021/04/23 05:24:21;;;;;;;;;;;;;;;-142.75;65.12;79774.28;5092063;28;19916;-68
2021/04/23 05:26:47;;;;;;;;;;;;;;;-142.75;65.15;79738.81;5110333;28;20387;-72
2021/04/23 05:29:12;;;;;;;;;;;;;;;-142.75;65.44;79673.81;5110572;28;19916;-72
2021/04/23 05:31:37;;;;;;;;;;;;;;;-142.75;64.54;79632.44;5109848;28;19938;-71
2021/04/23 05:34:02;;;;;;;;;;;;;;;-142.75;63.63;79520.16;5110060;28;19923;-71
2021/04/23 05:36:28;;;;;;;;;;;;;;;-142.75;62.51;79386.19;5110212;28;19954;-72
2021/04/23 05:38:53;;;;;;;;;;;;;;;-142.75;59.63;79222.72;5091481;28;19920;-72
2021/04/23 05:41:18;;;;;;;;;;;;;;;-142.75;57.05;79080.88;5109856;28;19919;-72
2021/04/23 05:43:45;;;;;;;;;;;;;;;-142.75;53.77;78956.78;5092445;28;20377;-72
2021/04/23 05:46:10;;;;;;;;;;;;;;;-142.75;53.47;78887.84;5092251;28;19912;-72
2021/04/23 05:48:36;;;;;;;;;;;;;;;-142.75;52.07;78785.44;5092524;28;20376;-71
2021/04/23 05:51:01;;;;;;;;;;;;;;;-142.75;50.43;78700.75;5110379;28;19915;-72
2021/04/23 05:53:26;;;;;;;;;;;;;;;-142.75;49.67;78657.41;5110754;28;20449;-72
2021/04/23 05:55:51;;;;;;;;;;;;;;;-142.75;48.27;78604.25;5092566;28;19912;-71
2021/04/23 05:58:16;;;;;;;;;;;;;;;-142.75;47.25;78562.88;5110116;28;20273;-73
2021/04/23 06:00:43;;;;;;;;;;;;;;;-142.75;46.52;78531.38;5110748;28;19920;-72
2021/04/23 06:03:08;;;;;;;;;;;;;;;-142.75;46.61;78582.59;5095603;28;19998;-72
2021/04/23 06:05:34;;;;;;;;;;;;;;;-142.75;46.16;78533.34;5114492;28;20056;-72
2021/04/23 06:08:02;;;;;;;;;;;;;;;-142.75;46.13;78491.97;5095975;28;19976;-72
2021/04/23 06:10:28;;;;;;;;;;;;;;;-142.75;44.85;78428.97;5114218;28;19964;-72
2021/04/23 06:12:54;;;;;;;;;;;;;;;-142.75;44.93;78395.47;5113914;28;19915;-72
2021/04/23 06:15:19;;;;;;;;;;;;;;;-142.75;44.60;78373.81;5114446;28;19912;-74
2021/04/23 06:17:45;;;;;;;;;;;;;;;-142.75;44.38;78338.38;5096552;28;20019;-71
2021/04/23 06:20:12;;;;;;;;;;;;;;;-142.75;43.40;78285.19;5114800;28;19912;-74
2021/04/23 06:22:37;;;;;;;;;;;;;;;-142.75;43.00;78216.28;5114590;28;19912;-72
2021/04/23 06:25:03;;;;;;;;;;;;;;;-142.75;41.85;78131.59;5113273;28;19926;-73
2021/04/23 06:27:29;;;;;;;;;;;;;;;-142.75;41.11;78117.81;5113803;28;19911;-72
2021/04/23 06:29:54;;;;;;;;;;;;;;;-142.75;40.13;78017.38;5113923;28;19937;-72
2021/04/23 06:32:19;;;;;;;;;;;;;;;-142.75;39.57;77976.03;5113440;28;19916;-72
2021/04/23 06:34:44;;;;;;;;;;;;;;;-142.75;38.65;77932.72;5095072;28;19925;-73
2021/04/23 06:37:10;;;;;;;;;;;;;;;-142.75;38.37;77934.69;5113663;28;19965;-72
2021/04/23 06:39:35;;;;;;;;;;;;;;;-142.75;38.72;77932.72;5095102;28;19941;-71
2021/04/23 06:42:00;;;;;;;;;;;;;;;-142.75;38.08;77915.00;5113283;28;20007;-72
2021/04/23 06:44:25;;;;;;;;;;;;;;;-142.75;38.72;77930.75;5113320;28;19950;-72
2021/04/23 06:46:50;;;;;;;;;;;;;;;-142.75;37.98;77869.69;5113311;28;19915;-71
2021/04/23 06:49:17;;;;;;;;;;;;;;;-142.75;37.95;77899.22;5095247;28;19911;-72
2021/04/23 06:51:42;;;;;;;;;;;;;;;-142.75;37.82;77903.16;5112738;28;19916;-72
2021/04/23 06:54:07;;;;;;;;;;;;;;;-142.75;37.57;77857.88;5113185;28;19918;-73
2021/04/23 06:56:33;;;;;;;;;;;;;;;-142.75;37.15;77857.88;5113131;28;19916;-73
2021/04/23 06:58:58;;;;;;;;;;;;;;;-142.75;37.12;77936.66;5113150;28;19959;-72
2021/04/23 07:01:23;;;;;;;;;;;;;;;-142.75;37.35;78046.91;5112902;28;19926;-72
2021/04/23 07:03:48;;;;;;;;;;;;;;;-142.75;39.85;78163.09;5113008;28;20005;-72
2021/04/23 07:06:14;;;;;;;;;;;;;;;-142.75;41.49;78265.50;5094653;28;19959;-72
2021/04/23 07:08:39;;;;;;;;;;;;;;;-142.75;41.05;78176.88;5113008;28;19947;-72
2021/04/23 07:11:05;;;;;;;;;;;;;;;-142.75;39.65;78084.34;5112436;28;19919;-73
2021/04/23 07:13:30;;;;;;;;;;;;;;;-142.75;38.00;77983.91;5093541;28;20359;-73
2021/04/23 07:15:55;;;;;;;;;;;;;;;-142.75;38.67;78015.41;5112862;28;19957;-72
2021/04/23 07:18:20;;;;;;;;;;;;;;;-142.75;38.78;77964.22;5112881;28;19959;-73
2021/04/23 07:20:46;;;;;;;;;;;;;;;-142.75;38.59;78039.03;5094328;28;19962;-73
2021/04/23 07:23:11;;;;;;;;;;;;;;;-142.75;38.02;77964.22;5094623;28;19937;-73
2021/04/23 07:25:37;;;;;;;;;;;;;;;-142.75;37.35;77828.34;5111903;28;19919;-72
2021/04/23 07:28:02;;;;;;;;;;;;;;;-142.75;34.36;77869.69;5112813;28;19922;-72
2021/04/23 07:30:29;;;;;;;;;;;;;;;-142.75;35.47;77796.84;5112336;28;19965;-70
2021/04/23 07:32:55;;;;;;;;;;;;;;;-142.75;35.21;77727.94;5112393;28;19915;-72
2021/04/23 07:35:21;;;;;;;;;;;;;;;-142.75;35.36;77716.09;5112318;28;19915;-72
2021/04/23 07:37:46;;;;;;;;;;;;;;;-142.75;33.71;77605.84;5112501;28;19918;-72
2021/04/23 07:40:14;;;;;;;;;;;;;;;-142.75;33.42;77639.31;5093734;28;20158;-73
2021/04/23 07:42:39;;;;;;;;;;;;;;;-142.75;33.66;77590.09;5112334;28;19912;-73
2021/04/23 07:45:05;;;;;;;;;;;;;;;-142.75;31.70;77546.78;5111531;28;19916;-72
2021/04/23 07:47:30;;;;;;;;;;;;;;;-142.75;32.58;77460.13;5112296;28;19915;-72
2021/04/23 07:49:55;;;;;;;;;;;;;;;-142.75;30.95;77538.91;5112347;28;20395;-72
2021/04/23 07:52:21;;;;;;;;;;;;;;;-142.75;34.07;77893.31;5111686;28;20364;-72
2021/04/23 07:54:46;;;;;;;;;;;;;;;-142.75;35.26;77861.81;5111637;28;19919;-72
2021/04/23 07:57:11;;;;;;;;;;;;;;;-142.75;34.36;77678.69;5112227;28;19911;-73
2021/04/23 07:59:37;;;;;;;;;;;;;;;-142.75;33.69;77596.00;5111936;28;19912;-73
2021/04/23 08:02:03;;;;;;;;;;;;;;;-142.75;31.04;77424.69;5111898;28;19938;-73
2021/04/23 08:04:28;;;;;;;;;;;;;;;-142.75;31.67;77432.56;5111948;28;20403;-74
2021/04/23 08:06:54;;;;;;;;;;;;;;;-142.75;32.12;77369.56;5093571;28;19959;-73
2021/04/23 08:09:19;;;;;;;;;;;;;;;-142.75;30.62;77436.50;5111642;28;20319;-73
2021/04/23 08:11:44;;;;;;;;;;;;;;;-142.75;31.46;77641.28;5093196;28;19935;-73
2021/04/23 08:14:09;;;;;;;;;;;;;;;-142.75;33.64;77844.09;5111360;28;19964;-73
2021/04/23 08:16:35;;;;;;;;;;;;;;;-142.75;33.27;77643.25;5093579;28;19916;-72
2021/04/23 08:19:00;;;;;;;;;;;;;;;-142.75;31.75;77406.97;5111465;28;20404;-73
2021/04/23 08:21:26;;;;;;;;;;;;;;;-142.75;31.53;77342.00;5111215;28;19964;-73
2021/04/23 08:23:52;;;;;;;;;;;;;;;-142.75;30.72;77298.69;5110673;28;19918;-72
2021/04/23 08:26:17;;;;;;;;;;;;;;;-142.75;29.69;77200.25;5093191;28;19915;-73
2021/04/23 08:28:42;;;;;;;;;;;;;;;-142.75;29.98;77186.47;5092955;28;20342;-73
2021/04/23 08:31:08;;;;;;;;;;;;;;;-142.75;30.53;77223.88;5092740;28;19923;-70
2021/04/23 08:33:33;;;;;;;;;;;;;;;-142.75;29.29;77129.38;5092980;28;19916;-74
2021/04/23 08:35:58;;;;;;;;;;;;;;;-142.75;29.40;77072.28;5092714;28;19923;-73
2021/04/23 08:38:24;;;;;;;;;;;;;;;-142.75;30.46;77217.97;5110936;28;20464;-73
2021/04/23 08:40:50;;;;;;;;;;;;;;;-142.75;29.59;77158.91;5110710;28;19973;-72
2021/04/23 08:43:16;;;;;;;;;;;;;;;-142.75;30.09;77408.94;5111223;28;19912;-73
2021/04/23 08:45:41;;;;;;;;;;;;;;;-142.75;31.78;77405.00;5110792;28;19957;-74
2021/04/23 08:48:06;;;;;;;;;;;;;;;-142.75;31.08;77462.13;5111006;28;19911;-73
2021/04/23 08:50:32;;;;;;;;;;;;;;;-142.75;30.66;77365.63;5092454;28;19912;-74
2021/04/23 08:52:57;;;;;;;;;;;;;;;-142.75;32.41;77513.31;5092789;28;19955;-72
2021/04/23 08:55:24;;;;;;;;;;;;;;;-142.75;31.27;77353.81;5110671;28;19923;-73
2021/04/23 08:57:49;;;;;;;;;;;;;;;-142.75;29.72;77259.31;5110939;28;20369;-73
2021/04/23 09:00:16;;;;;;;;;;;;;;;-142.75;30.46;77239.63;5092491;28;19920;-71
2021/04/23 09:02:42;;;;;;;;;;;;;;;-142.75;30.10;77212.06;5092367;28;19915;-71
2021/04/23 09:05:07;;;;;;;;;;;;;;;-142.75;29.53;77158.91;5110685;28;20285;-73
2021/04/23 09:07:33;;;;;;;;;;;;;;;-142.75;28.88;77129.38;5110424;28;20385;-73
2021/04/23 09:10:06;;;;;;;;;;;;;;;-142.75;28.64;77090.00;5110556;28;20324;-73
2021/04/23 09:12:31;;;;;;;;;;;;;;;-142.75;28.14;77113.63;5110111;28;19927;-74
2021/04/23 09:14:56;;;;;;;;;;;;;;;-142.75;29.69;77139.22;5110501;28;19916;-74
2021/04/23 09:17:26;;;;;;;;;;;;;;;-142.75;29.25;77058.50;5092368;28;20407;-74
2021/04/23 09:19:52;;;;;;;;;;;;;;;-142.75;29.44;77044.72;5093200;28;20280;-73
2021/04/23 09:22:17;;;;;;;;;;;;;;;-142.75;28.24;77009.28;5092997;28;19912;-73
2021/04/23 09:24:43;;;;;;;;;;;;;;;-142.75;26.93;77060.47;5110801;28;19960;-73
2021/04/23 09:27:10;;;;;;;;;;;;;;;-142.75;28.24;77174.66;5093122;28;19912;-75
2021/04/23 09:29:36;;;;;;;;;;;;;;;-142.75;28.75;77103.78;5111497;28;19912;-74
2021/04/23 09:32:15;;;;;;;;;;;;;;;-142.75;27.33;77119.53;5092730;28;19923;-75
2021/04/23 09:34:52;;;;;;;;;;;;;;;-142.75;29.03;77188.44;5112401;28;20293;-76
2021/04/23 09:37:18;;;;;;;;;;;;;;;-142.75;31.30;77397.13;5114572;28;20376;-74
2021/04/23 09:39:45;;;;;;;;;;;;;;;-142.75;30.41;77149.06;5115627;28;20309;-75
2021/04/23 09:42:11;;;;;;;;;;;;;;;-142.75;29.54;77054.56;5115414;28;19912;-74
2021/04/23 09:44:44;;;;;;;;;;;;;;;-142.75;27.69;76985.66;5097040;28;19918;-73
2021/04/23 09:47:13;;;;;;;;;;;;;;;-142.75;28.10;77019.13;5115523;28;19956;-74
2021/04/23 09:49:39;;;;;;;;;;;;;;;-142.75;28.28;77058.50;5115532;28;19918;-74
2021/04/23 09:52:05;;;;;;;;;;;;;;;-142.75;29.09;76977.78;5096779;28;19916;-75
2021/04/23 09:54:31;;;;;;;;;;;;;;;-142.75;27.37;77007.31;5115142;28;19999;-73
2021/04/23 09:56:57;;;;;;;;;;;;;;;-142.75;28.09;76975.81;5096956;28;20006;-74
2021/04/23 09:59:24;;;;;;;;;;;;;;;-142.75;27.22;77121.50;5114974;28;19912;-73
2021/04/23 10:01:53;;;;;;;;;;;;;;;-142.75;27.82;77086.06;5114898;28;19912;-74
2021/04/23 10:04:36;;;;;;;;;;;;;;;-142.75;30.25;77399.09;5114838;28;19919;-72
2021/04/23 10:07:08;;;;;;;;;;;;;;;-142.75;28.95;77229.78;5096725;28;19915;-73
2021/04/23 10:09:34;;;;;;;;;;;;;;;-142.75;30.43;77208.13;5114855;28;19999;-74
2021/04/23 10:11:59;;;;;;;;;;;;;;;-142.75;28.97;77040.78;5114488;28;19920;-74
2021/04/23 10:14:25;;;;;;;;;;;;;;;-142.75;27.84;77082.13;5114642;28;19965;-74
2021/04/23 10:16:58;;;;;;;;;;;;;;;-142.75;27.75;76995.50;5114687;28;19926;-71
2021/04/23 10:19:23;;;;;;;;;;;;;;;-142.75;28.01;76906.91;5114866;28;19922;-74
2021/04/23 10:21:49;;;;;;;;;;;;;;;-142.75;27.90;76926.59;5096282;28;19911;-74
2021/04/23 10:24:15;;;;;;;;;;;;;;;-142.75;27.78;77070.31;5114565;28;19955;-74
2021/04/23 10:26:41;;;;;;;;;;;;;;;-142.75;28.04;77217.97;5114761;28;19918;-74
2021/04/23 10:29:06;;;;;;;;;;;;;;;-142.75;30.26;77190.41;5114078;28;19912;-74
2021/04/23 10:31:31;;;;;;;;;;;;;;;-142.75;28.37;77015.19;5096034;28;19915;-73
2021/04/23 10:33:57;;;;;;;;;;;;;;;-142.75;27.95;77156.94;5114456;28;19912;-74
2021/04/23 10:36:22;;;;;;;;;;;;;;;-142.75;29.21;77058.50;5096483;28;20347;-73
2021/04/23 10:38:48;;;;;;;;;;;;;;;-142.75;28.95;76995.50;5096384;28;19907;-74
2021/04/23 10:41:13;;;;;;;;;;;;;;;-142.75;30.07;77446.34;5095911;28;20299;-72
2021/04/23 10:43:49;;;;;;;;;;;;;;;-142.75;32.23;77558.59;5114458;28;19914;-74
2021/04/23 10:46:15;;;;;;;;;;;;;;;-142.75;32.12;77590.09;5114209;28;20300;-75
2021/04/23 10:48:42;;;;;;;;;;;;;;;-142.75;30.45;77359.72;5095938;28;19919;-74
2021/04/23 10:51:19;;;;;;;;;;;;;;;-142.75;30.58;77231.75;5095793;28;19984;-74
2021/04/23 10:53:52;;;;;;;;;;;;;;;-142.75;29.32;77296.72;5095934;28;20016;-74
2021/04/23 10:56:20;;;;;;;;;;;;;;;-142.75;30.03;77097.88;5114084;28;19915;-74
2021/04/23 10:58:45;;;;;;;;;;;;;;;-142.75;29.38;77091.97;5114238;28;19911;-74
2021/04/23 11:01:14;;;;;;;;;;;;;;;-142.75;28.37;77105.75;5095508;28;19984;-73
2021/04/23 11:03:43;;;;;;;;;;;;;;;-142.75;29.68;77168.75;5114099;28;19926;-76
2021/04/23 11:06:14;;;;;;;;;;;;;;;-142.75;29.02;77011.25;5114347;28;19920;-73
2021/04/23 11:09:04;;;;;;;;;;;;;;;-142.75;28.43;76977.78;5112609;28;20379;-75
2021/04/23 11:11:29;;;;;;;;;;;;;;;-142.75;30.86;77405.00;5111692;28;19916;-76
2021/04/23 11:13:55;;;;;;;;;;;;;;;-142.75;29.62;77405.00;5113636;28;19922;-72
2021/04/23 11:18:54;;;;;;;;;;;;;;;-142.75;30.53;77292.78;5113583;28;19912;-74
2021/04/23 11:21:40;;;;;;;;;;;;;;;-142.75;31.24;77196.31;5095011;28;19950;-72
2021/04/23 11:24:15;;;;;;;;;;;;;;;-142.75;29.34;76987.63;5112910;28;20408;-73
2021/04/23 11:27:03;;;;;;;;;;;;;;;-142.75;29.11;76991.56;5113690;28;19918;-73
2021/04/23 11:29:30;;;;;;;;;;;;;;;-142.75;28.32;77105.75;5094990;28;19977;-74
2021/04/23 11:32:14;;;;;;;;;;;;;;;-142.75;29.21;77200.25;5092410;28;19916;-73
2021/04/23 11:34:44;;;;;;;;;;;;;;;-142.75;30.66;77267.19;5113361;28;19950;-74
2021/04/23 11:37:14;;;;;;;;;;;;;;;-142.75;29.56;77131.34;5113476;28;19979;-73
2021/04/23 11:39:44;;;;;;;;;;;;;;;-142.75;28.61;77184.50;5113614;28;19915;-71
2021/04/23 11:42:19;;;;;;;;;;;;;;;-142.75;31.15;77343.97;5113080;28;19911;-73
2021/04/23 11:44:47;;;;;;;;;;;;;;;-142.75;30.67;77342.00;5113246;28;19950;-74
2021/04/23 11:47:14;;;;;;;;;;;;;;;-142.75;32.39;77623.56;5094947;28;20365;-73
2021/04/23 11:49:39;;;;;;;;;;;;;;;-142.75;35.00;77785.03;5113083;28;20387;-74
2021/04/23 11:52:05;;;;;;;;;;;;;;;-142.75;33.84;77840.16;5112751;28;19916;-73
2021/04/23 11:54:42;;;;;;;;;;;;;;;-142.75;34.91;77897.25;5113115;28;19927;-75
2021/04/23 11:57:08;;;;;;;;;;;;;;;-142.75;38.07;78109.94;5094904;28;20392;-74
2021/04/23 11:59:34;;;;;;;;;;;;;;;-142.75;37.71;78050.84;5094031;28;20006;-74
2021/04/23 12:01:59;;;;;;;;;;;;;;;-142.75;36.41;77936.66;5094324;28;20002;-73
2021/04/23 12:04:45;;;;;;;;;;;;;;;-142.75;35.89;77946.50;5112155;28;20277;-74
2021/04/23 12:07:10;;;;;;;;;;;;;;;-142.75;36.57;77865.75;5112452;28;19919;-74
2021/04/23 12:09:36;;;;;;;;;;;;;;;-142.75;36.59;77881.50;5094338;28;20292;-72
2021/04/23 12:12:04;;;;;;;;;;;;;;;-142.75;36.56;77942.56;5112159;28;19916;-74
2021/04/23 12:14:48;;;;;;;;;;;;;;;-142.75;36.17;77918.94;5094472;28;20300;-73
2021/04/23 12:17:14;;;;;;;;;;;;;;;-142.75;36.57;77905.13;5112294;28;19922;-74
2021/04/23 12:19:39;;;;;;;;;;;;;;;-142.75;36.21;77887.41;5112424;28;20330;-74
2021/04/23 12:22:05;;;;;;;;;;;;;;;-142.75;37.72;77909.06;5093755;28;19911;-74
2021/04/23 12:24:30;;;;;;;;;;;;;;;-142.75;36.91;77909.06;5112139;28;19964;-74
2021/04/23 12:26:55;;;;;;;;;;;;;;;-142.75;36.77;77966.19;5112107;28;19918;-73
2021/04/23 12:29:23;;;;;;;;;;;;;;;-142.75;37.84;77978.00;5111973;28;19921;-74